createdAt,value
2018-08-04T00:00:17.242Z,101603.39
2018-08-04T00:01:22.668Z,101604.39
2018-08-04T00:02:28.144Z,101603.47
2018-08-04T00:03:33.584Z,101602.73
2018-08-04T00:04:39.104Z,101605.90
2018-08-04T00:05:44.528Z,101607.65
2018-08-04T00:06:49.986Z,101608.12
2018-08-04T00:07:55.488Z,101607.94
2018-08-04T00:09:00.890Z,101610.27
2018-08-04T00:10:17.579Z,101606.63
2018-08-04T00:11:23.033Z,101606.71
2018-08-04T00:12:28.513Z,101607.75
2018-08-04T00:13:34.292Z,101607.19
2018-08-04T00:14:39.718Z,101601.86
2018-08-04T00:15:45.200Z,101599.34
2018-08-04T00:16:50.717Z,101603.09
2018-08-04T00:17:56.202Z,101607.09
2018-08-04T00:19:01.773Z,101605.02
2018-08-04T00:20:07.304Z,101606.78
2018-08-04T00:21:12.722Z,101605.67
2018-08-04T00:22:18.139Z,101607.23
2018-08-04T00:23:23.559Z,101611.80
2018-08-04T00:24:29.186Z,101610.30
2018-08-04T00:25:35.427Z,101604.77
2018-08-04T00:26:41.648Z,101599.80
2018-08-04T00:27:47.077Z,101601.35
2018-08-04T00:28:52.548Z,101593.99
2018-08-04T00:29:58.409Z,101590.33
2018-08-04T00:31:04.090Z,101591.36
2018-08-04T00:32:09.709Z,101592.16
2018-08-04T00:33:15.163Z,101589.52
2018-08-04T00:34:20.834Z,101586.63
2018-08-04T00:35:26.292Z,101587.35
2018-08-04T00:36:31.730Z,101588.34
2018-08-04T00:37:37.596Z,101588.42
2018-08-04T00:38:43.017Z,101591.83
2018-08-04T00:39:48.414Z,101589.53
2018-08-04T00:40:53.987Z,101591.27
2018-08-04T00:41:59.385Z,101588.00
2018-08-04T00:43:05.879Z,101584.08
2018-08-04T00:44:11.581Z,101586.37
2018-08-04T00:45:17.023Z,101583.09
2018-08-04T00:46:22.549Z,101580.09
2018-08-04T00:47:28.173Z,101583.48
2018-08-04T00:48:34.401Z,101588.66
2018-08-04T00:49:40.182Z,101587.71
2018-08-04T00:50:45.644Z,101589.56
2018-08-04T00:51:51.136Z,101591.34
2018-08-04T00:52:56.881Z,101587.43
2018-08-04T00:54:02.356Z,101582.06
2018-08-04T00:55:08.431Z,101581.83
2018-08-04T00:56:13.828Z,101582.77
2018-08-04T00:57:19.327Z,101583.67
2018-08-04T00:58:25.030Z,101578.46
2018-08-04T00:59:30.546Z,101584.55
2018-08-04T01:00:37.015Z,101583.72
2018-08-04T01:01:42.802Z,101584.75
2018-08-04T01:02:48.264Z,101582.14
2018-08-04T01:03:54.114Z,101581.26
2018-08-04T01:05:00.174Z,101580.95
2018-08-04T01:06:06.579Z,101584.43
2018-08-04T01:07:12.097Z,101580.23
2018-08-04T01:08:17.554Z,101580.86
2018-08-04T01:09:23.262Z,101575.94
2018-08-04T01:10:28.642Z,101577.86
2018-08-04T01:11:34.805Z,101579.17
2018-08-04T01:12:41.349Z,101573.28
2018-08-04T01:13:46.867Z,101576.83
2018-08-04T01:14:52.777Z,101578.21
2018-08-04T01:15:58.293Z,101577.38
2018-08-04T01:17:04.845Z,101576.63
2018-08-04T01:18:10.418Z,101576.91
2018-08-04T01:19:15.989Z,101574.09
2018-08-04T01:20:21.396Z,101574.17
2018-08-04T01:21:26.850Z,101573.86
2018-08-04T01:22:33.547Z,101571.02
2018-08-04T01:23:39.996Z,101572.11
2018-08-04T01:24:45.449Z,101568.16
2018-08-04T01:25:50.856Z,101566.77
2018-08-04T01:26:56.589Z,101567.48
2018-08-04T01:28:02.132Z,101571.59
2018-08-04T01:29:07.968Z,101573.72
2018-08-04T01:30:13.561Z,101567.76
2018-08-04T01:31:18.978Z,101568.16
2018-08-04T01:32:24.460Z,101563.70
2018-08-04T01:33:29.923Z,101563.48
2018-08-04T01:34:36.171Z,101562.39
2018-08-04T01:35:41.728Z,101559.00
2018-08-04T01:36:47.636Z,101562.91
2018-08-04T01:37:53.034Z,101560.62
2018-08-04T01:38:58.493Z,101567.53
2018-08-04T01:40:05.165Z,101565.00
2018-08-04T01:41:10.620Z,101561.84
2018-08-04T01:42:16.114Z,101553.81
2018-08-04T01:43:21.535Z,101558.64
2018-08-04T01:44:27.025Z,101564.72
2018-08-04T01:45:32.543Z,101556.84
2018-08-04T01:46:38.320Z,101556.66
2018-08-04T01:47:43.770Z,101556.22
2018-08-04T01:48:49.172Z,101557.59
2018-08-04T01:49:54.599Z,101556.84
2018-08-04T01:51:00.161Z,101551.66
2018-08-04T01:52:05.873Z,101549.67
2018-08-04T01:53:11.277Z,101551.67
2018-08-04T01:54:16.741Z,101548.78
2018-08-04T01:55:22.301Z,101542.48
2018-08-04T01:56:27.793Z,101551.39
2018-08-04T01:57:33.340Z,101544.55
2018-08-04T01:58:39.832Z,101551.67
2018-08-04T01:59:45.330Z,101547.98
2018-08-04T02:00:50.769Z,101547.14
2018-08-04T02:01:56.605Z,101544.27
2018-08-04T02:03:02.115Z,101539.61
2018-08-04T02:04:07.954Z,101537.76
2018-08-04T02:05:13.421Z,101532.34
2018-08-04T02:06:18.866Z,101538.49
2018-08-04T02:07:24.414Z,101535.16
2018-08-04T02:08:29.890Z,101533.96
2018-08-04T02:09:35.305Z,101533.02
2018-08-04T02:10:40.736Z,101533.49
2018-08-04T02:11:47.365Z,101536.85
2018-08-04T02:12:52.992Z,101534.17
2018-08-04T02:13:58.384Z,101537.33
2018-08-04T02:15:03.904Z,101536.30
2018-08-04T02:16:09.459Z,101540.13
2018-08-04T02:17:14.994Z,101536.36
2018-08-04T02:18:21.623Z,101540.23
2018-08-04T02:19:27.673Z,101537.58
2018-08-04T02:20:33.246Z,101538.20
2018-08-04T02:21:38.677Z,101531.98
2018-08-04T02:22:44.205Z,101535.27
2018-08-04T02:23:50.630Z,101541.88
2018-08-04T02:24:56.229Z,101537.58
2018-08-04T02:26:01.723Z,101542.40
2018-08-04T02:27:07.217Z,101541.57
2018-08-04T02:28:12.696Z,101535.37
2018-08-04T02:29:18.948Z,101532.58
2018-08-04T02:30:24.793Z,101542.02
2018-08-04T02:31:30.447Z,101533.80
2018-08-04T02:32:35.897Z,101534.08
2018-08-04T02:33:41.489Z,101529.53
2018-08-04T02:34:47.195Z,101531.04
2018-08-04T02:35:53.222Z,101531.71
2018-08-04T02:36:58.814Z,101530.95
2018-08-04T02:38:04.206Z,101530.77
2018-08-04T02:39:10.406Z,101527.33
2018-08-04T02:40:15.941Z,101528.09
2018-08-04T02:41:21.835Z,101535.35
2018-08-04T02:42:27.273Z,101520.66
2018-08-04T02:43:32.696Z,101528.84
2018-08-04T02:44:38.142Z,101524.38
2018-08-04T02:45:43.454Z,101529.23
2018-08-04T02:46:48.846Z,101525.00
2018-08-04T02:47:54.675Z,101525.95
2018-08-04T02:49:00.086Z,101519.80
2018-08-04T02:50:06.380Z,101520.58
2018-08-04T02:51:11.928Z,101523.55
2018-08-04T02:52:17.527Z,101521.77
2018-08-04T02:53:23.481Z,101524.61
2018-08-04T02:54:28.860Z,101527.14
2018-08-04T02:55:34.601Z,101520.34
2018-08-04T02:56:40.928Z,101524.58
2018-08-04T02:57:46.316Z,101520.07
2018-08-04T02:58:52.239Z,101523.43
2018-08-04T02:59:58.226Z,101521.73
2018-08-04T03:01:03.656Z,101525.28
2018-08-04T03:02:09.372Z,101519.84
2018-08-04T03:03:14.727Z,101517.23
2018-08-04T03:04:21.898Z,101521.69
2018-08-04T03:05:27.444Z,101515.05
2018-08-04T03:06:32.955Z,101513.23
2018-08-04T03:07:38.577Z,101516.16
2018-08-04T03:08:44.025Z,101513.58
2018-08-04T03:09:50.400Z,101516.34
2018-08-04T03:10:56.460Z,101514.41
2018-08-04T03:12:01.893Z,101518.11
2018-08-04T03:13:07.338Z,101514.59
2018-08-04T03:14:12.824Z,101513.97
2018-08-04T03:15:18.394Z,101520.77
2018-08-04T03:16:23.986Z,101520.14
2018-08-04T03:17:29.163Z,101515.04
2018-08-04T03:18:34.517Z,101517.12
2018-08-04T03:19:40.023Z,101518.23
2018-08-04T03:20:45.537Z,101515.01
2018-08-04T03:21:51.670Z,101510.94
2018-08-04T03:22:57.187Z,101512.04
2018-08-04T03:24:02.608Z,101509.04
2018-08-04T03:25:08.453Z,101510.61
2018-08-04T03:26:13.989Z,101510.38
2018-08-04T03:27:19.760Z,101511.13
2018-08-04T03:28:25.476Z,101507.66
2018-08-04T03:29:30.877Z,101513.42
2018-08-04T03:30:36.268Z,101511.73
2018-08-04T03:31:42.143Z,101512.75
2018-08-04T03:32:47.716Z,101518.04
2018-08-04T03:33:53.405Z,101518.27
2018-08-04T03:34:58.793Z,101523.20
2018-08-04T03:36:04.282Z,101525.36
2018-08-04T03:37:09.855Z,101529.11
2018-08-04T03:38:15.394Z,101531.64
2018-08-04T03:39:22.605Z,101531.25
2018-08-04T03:40:28.340Z,101535.34
2018-08-04T03:41:33.852Z,101538.63
2018-08-04T03:42:39.584Z,101538.00
2018-08-04T03:43:45.825Z,101538.98
2018-08-04T03:44:52.482Z,101535.63
2018-08-04T03:45:58.834Z,101536.25
2018-08-04T03:47:04.325Z,101542.30
2018-08-04T03:48:09.936Z,101544.22
2018-08-04T03:49:15.473Z,101543.31
2018-08-04T03:50:21.051Z,101544.77
2018-08-04T03:51:26.961Z,101538.94
2018-08-04T03:52:32.520Z,101531.59
2018-08-04T03:53:37.972Z,101532.21
2018-08-04T03:54:43.444Z,101536.20
2018-08-04T03:55:48.917Z,101533.53
2018-08-04T03:56:54.490Z,101534.23
2018-08-04T03:57:59.993Z,101532.56
2018-08-04T03:59:05.576Z,101534.70
2018-08-04T04:00:11.173Z,101541.75
2018-08-04T04:01:17.185Z,101533.62
2018-08-04T04:02:22.976Z,101535.44
2018-08-04T04:03:28.464Z,101540.14
2018-08-04T04:04:33.914Z,101535.09
2018-08-04T04:05:39.406Z,101530.56
2018-08-04T04:06:44.927Z,101529.26
2018-08-04T04:07:50.721Z,101523.22
2018-08-04T04:08:56.115Z,101520.91
2018-08-04T04:10:01.597Z,101522.35
2018-08-04T04:11:07.227Z,101520.08
2018-08-04T04:12:13.301Z,101520.00
2018-08-04T04:13:19.468Z,101511.91
2018-08-04T04:14:25.014Z,101516.64
2018-08-04T04:15:30.604Z,101521.45
2018-08-04T04:16:36.314Z,101519.09
2018-08-04T04:17:46.448Z,101521.05
2018-08-04T04:18:52.082Z,101515.55
2018-08-04T04:19:58.064Z,101523.44
2018-08-04T04:21:03.570Z,101517.55
2018-08-04T04:22:09.080Z,101518.79
2018-08-04T04:23:14.543Z,101521.24
2018-08-04T04:24:20.201Z,101517.05
2018-08-04T04:25:25.819Z,101521.03
2018-08-04T04:26:31.365Z,101520.95
2018-08-04T04:27:37.128Z,101526.59
2018-08-04T04:28:42.660Z,101529.75
2018-08-04T04:29:48.486Z,101521.94
2018-08-04T04:30:54.203Z,101523.85
2018-08-04T04:31:59.669Z,101526.23
2018-08-04T04:33:05.112Z,101527.83
2018-08-04T04:34:10.545Z,101527.90
2018-08-04T04:35:16.000Z,101525.77
2018-08-04T04:36:21.608Z,101528.84
2018-08-04T04:37:27.026Z,101525.55
2018-08-04T04:38:32.477Z,101534.55
2018-08-04T04:39:37.931Z,101529.05
2018-08-04T04:40:43.465Z,101535.09
2018-08-04T04:41:49.479Z,101533.50
2018-08-04T04:42:55.100Z,101531.19
2018-08-04T04:44:00.646Z,101532.05
2018-08-04T04:45:06.456Z,101533.25
2018-08-04T04:46:11.994Z,101537.55
2018-08-04T04:47:18.578Z,101535.78
2018-08-04T04:48:24.257Z,101539.55
2018-08-04T04:49:29.644Z,101539.69
2018-08-04T04:50:35.112Z,101545.29
2018-08-04T04:51:41.415Z,101542.61
2018-08-04T04:52:47.501Z,101546.59
2018-08-04T04:53:53.127Z,101547.06
2018-08-04T04:54:58.722Z,101543.38
2018-08-04T04:56:04.194Z,101546.45
2018-08-04T04:57:09.923Z,101548.36
2018-08-04T04:58:15.351Z,101544.83
2018-08-04T04:59:21.545Z,101544.39
2018-08-04T05:00:27.042Z,101549.73
2018-08-04T05:01:32.477Z,101552.89
2018-08-04T05:02:37.932Z,101560.52
2018-08-04T05:03:43.341Z,101555.31
2018-08-04T05:04:48.940Z,101553.72
2018-08-04T05:05:54.396Z,101559.39
2018-08-04T05:06:59.924Z,101562.00
2018-08-04T05:08:05.665Z,101564.74
2018-08-04T05:09:11.092Z,101560.00
2018-08-04T05:10:16.569Z,101563.59
2018-08-04T05:11:22.045Z,101559.32
2018-08-04T05:12:27.881Z,101562.28
2018-08-04T05:13:33.290Z,101562.53
2018-08-04T05:14:38.714Z,101562.22
2018-08-04T05:15:44.116Z,101560.98
2018-08-04T05:16:49.898Z,101559.47
2018-08-04T05:17:55.801Z,101561.38
2018-08-04T05:19:01.328Z,101557.16
2018-08-04T05:20:07.877Z,101559.21
2018-08-04T05:21:13.402Z,101554.47
2018-08-04T05:22:18.885Z,101564.49
2018-08-04T05:23:24.953Z,101560.15
2018-08-04T05:24:30.377Z,101555.92
2018-08-04T05:25:35.793Z,101554.40
2018-08-04T05:26:41.239Z,101557.77
2018-08-04T05:27:47.320Z,101551.40
2018-08-04T05:28:52.900Z,101554.00
2018-08-04T05:29:58.460Z,101559.21
2018-08-04T05:31:03.910Z,101561.45
2018-08-04T05:32:09.361Z,101561.45
2018-08-04T05:33:14.789Z,101559.75
2018-08-04T05:34:21.461Z,101568.64
2018-08-04T05:35:27.162Z,101565.58
2018-08-04T05:36:32.658Z,101566.63
2018-08-04T05:37:38.064Z,101568.09
2018-08-04T05:38:43.510Z,101571.25
2018-08-04T05:39:49.218Z,101567.85
2018-08-04T05:40:54.793Z,101562.89
2018-08-04T05:42:00.209Z,101566.06
2018-08-04T05:43:05.669Z,101571.70
2018-08-04T05:44:11.297Z,101564.50
2018-08-04T05:45:16.793Z,101565.41
2018-08-04T05:46:24.834Z,101570.87
2018-08-04T05:47:30.462Z,101566.48
2018-08-04T05:48:35.904Z,101571.16
2018-08-04T05:49:41.366Z,101572.92
2018-08-04T05:50:46.857Z,101571.98
2018-08-04T05:51:52.600Z,101577.80
2018-08-04T05:52:58.339Z,101579.03
2018-08-04T05:54:03.796Z,101576.16
2018-08-04T05:55:09.546Z,101580.75
2018-08-04T05:56:15.047Z,101576.69
2018-08-04T05:57:21.654Z,101578.52
2018-08-04T05:58:27.179Z,101578.73
2018-08-04T05:59:32.608Z,101578.58
2018-08-04T06:00:38.059Z,101581.78
2018-08-04T06:01:44.029Z,101575.47
2018-08-04T06:02:49.779Z,101577.41
2018-08-04T06:03:55.420Z,101580.38
2018-08-04T06:05:01.265Z,101574.45
2018-08-04T06:06:06.760Z,101581.41
2018-08-04T06:07:12.630Z,101578.88
2018-08-04T06:08:18.270Z,101580.03
2018-08-04T06:09:24.103Z,101578.02
2018-08-04T06:10:29.764Z,101584.07
2018-08-04T06:11:35.190Z,101579.53
2018-08-04T06:12:40.692Z,101582.34
2018-08-04T06:13:46.202Z,101586.05
2018-08-04T06:14:52.209Z,101580.56
2018-08-04T06:15:57.685Z,101584.47
2018-08-04T06:17:03.095Z,101586.84
2018-08-04T06:18:09.242Z,101589.09
2018-08-04T06:19:14.720Z,101587.55
2018-08-04T06:20:20.213Z,101580.28
2018-08-04T06:21:25.666Z,101582.48
2018-08-04T06:22:31.112Z,101588.57
2018-08-04T06:23:36.592Z,101585.44
2018-08-04T06:24:42.027Z,101593.05
2018-08-04T06:25:47.437Z,101591.58
2018-08-04T06:26:53.859Z,101607.98
2018-08-04T06:27:59.470Z,101600.13
2018-08-04T06:29:05.465Z,101600.79
2018-08-04T06:30:12.057Z,101600.89
2018-08-04T06:31:17.505Z,101602.67
2018-08-04T06:32:22.994Z,101605.56
2018-08-04T06:33:28.419Z,101606.70
2018-08-04T06:34:34.392Z,101604.09
2018-08-04T06:35:39.984Z,101599.52
2018-08-04T06:36:45.518Z,101601.13
2018-08-04T06:37:51.235Z,101600.45
2018-08-04T06:38:56.759Z,101601.38
2018-08-04T06:40:02.608Z,101598.67
2018-08-04T06:41:08.208Z,101596.72
2018-08-04T06:42:13.682Z,101603.27
2018-08-04T06:43:19.313Z,101603.93
2018-08-04T06:44:24.751Z,101604.41
2018-08-04T06:45:30.522Z,101603.20
2018-08-04T06:46:36.096Z,101603.95
2018-08-04T06:47:41.861Z,101612.89
2018-08-04T06:48:47.009Z,101616.45
2018-08-04T06:49:52.625Z,101615.62
2018-08-04T06:50:58.073Z,101611.58
2018-08-04T06:52:03.652Z,101609.26
2018-08-04T06:53:09.147Z,101610.10
2018-08-04T06:54:15.673Z,101611.80
2018-08-04T06:55:21.468Z,101612.38
2018-08-04T06:56:27.264Z,101611.72
2018-08-04T06:57:32.716Z,101617.31
2018-08-04T06:58:38.185Z,101618.80
2018-08-04T06:59:43.890Z,101621.23
2018-08-04T07:00:50.015Z,101622.19
2018-08-04T07:01:56.066Z,101623.94
2018-08-04T07:03:01.740Z,101627.30
2018-08-04T07:04:07.244Z,101622.50
2018-08-04T07:05:12.689Z,101620.72
2018-08-04T07:06:18.107Z,101624.82
2018-08-04T07:07:23.937Z,101630.80
2018-08-04T07:08:29.845Z,101626.99
2018-08-04T07:09:35.343Z,101627.64
2018-08-04T07:10:40.799Z,101627.90
2018-08-04T07:11:46.323Z,101620.96
2018-08-04T07:12:52.511Z,101627.58
2018-08-04T07:13:58.121Z,101625.08
2018-08-04T07:15:03.644Z,101627.97
2018-08-04T07:16:09.116Z,101630.48
2018-08-04T07:17:14.627Z,101625.03
2018-08-04T07:18:20.345Z,101622.78
2018-08-04T07:19:26.336Z,101624.25
2018-08-04T07:20:31.863Z,101619.56
2018-08-04T07:21:37.268Z,101622.34
2018-08-04T07:22:42.916Z,101616.83
2018-08-04T07:23:48.505Z,101614.66
2018-08-04T07:24:54.236Z,101610.95
2018-08-04T07:25:59.710Z,101611.30
2018-08-04T07:27:05.352Z,101615.33
2018-08-04T07:28:10.781Z,101614.17
2018-08-04T07:29:16.355Z,101616.47
2018-08-04T07:30:22.329Z,101615.98
2018-08-04T07:31:27.957Z,101612.15
2018-08-04T07:32:33.493Z,101614.92
2018-08-04T07:33:39.018Z,101614.98
2018-08-04T07:34:44.812Z,101616.24
2018-08-04T07:35:50.692Z,101614.05
2018-08-04T07:36:56.455Z,101614.45
2018-08-04T07:38:02.024Z,101623.28
2018-08-04T07:39:09.931Z,101612.90
2018-08-04T07:40:15.793Z,101610.22
2018-08-04T07:41:21.570Z,101608.38
2018-08-04T07:42:27.086Z,101615.20
2018-08-04T07:43:32.513Z,101614.61
2018-08-04T07:44:37.933Z,101610.72
2018-08-04T07:45:43.477Z,101612.28
2018-08-04T07:46:49.076Z,101612.18
2018-08-04T07:47:54.860Z,101613.48
2018-08-04T07:49:00.309Z,101608.39
2018-08-04T07:50:06.513Z,101609.64
2018-08-04T07:51:12.037Z,101617.41
2018-08-04T07:52:17.563Z,101612.02
2018-08-04T07:53:23.664Z,101617.41
2018-08-04T07:54:29.592Z,101615.02
2018-08-04T07:55:35.077Z,101616.27
2018-08-04T07:56:40.525Z,101613.89
2018-08-04T07:57:46.026Z,101613.89
2018-08-04T07:58:52.209Z,101611.41
2018-08-04T07:59:57.738Z,101616.34
2018-08-04T08:01:03.255Z,101620.56
2018-08-04T08:02:08.816Z,101621.80
2018-08-04T08:03:14.720Z,101621.19
2018-08-04T08:04:20.290Z,101629.09
2018-08-04T08:05:25.992Z,101626.84
2018-08-04T08:06:31.796Z,101626.64
2018-08-04T08:07:37.269Z,101623.49
2018-08-04T08:08:42.909Z,101622.10
2018-08-04T08:09:48.337Z,101623.92
2018-08-04T08:10:53.859Z,101626.72
2018-08-04T08:11:59.369Z,101626.13
2018-08-04T08:13:04.848Z,101631.52
2018-08-04T08:14:10.317Z,101629.16
2018-08-04T08:15:15.808Z,101632.31
2018-08-04T08:16:21.277Z,101625.88
2018-08-04T08:17:26.892Z,101634.98
2018-08-04T08:18:32.284Z,101636.59
2018-08-04T08:19:37.730Z,101631.72
2018-08-04T08:20:43.260Z,101636.89
2018-08-04T08:21:48.730Z,101635.47
2018-08-04T08:22:54.205Z,101632.50
2018-08-04T08:23:59.671Z,101635.37
2018-08-04T08:25:06.096Z,101636.58
2018-08-04T08:26:14.217Z,101636.97
2018-08-04T08:27:20.000Z,101637.57
2018-08-04T08:28:25.589Z,101644.98
2018-08-04T08:29:31.165Z,101642.02
2018-08-04T08:30:36.789Z,101653.02
2018-08-04T08:31:42.396Z,101647.65
2018-08-04T08:32:47.818Z,101653.81
2018-08-04T08:33:53.626Z,101653.33
2018-08-04T08:34:59.220Z,101650.24
2018-08-04T08:36:05.148Z,101647.23
2018-08-04T08:37:10.622Z,101650.46
2018-08-04T08:38:16.105Z,101648.73
2018-08-04T08:39:21.673Z,101649.86
2018-08-04T08:40:27.238Z,101651.78
2018-08-04T08:41:32.667Z,101652.88
2018-08-04T08:42:38.220Z,101653.21
2018-08-04T08:43:43.660Z,101648.06
2018-08-04T08:44:49.239Z,101647.95
2018-08-04T08:45:54.715Z,101645.91
2018-08-04T08:47:00.388Z,101643.20
2018-08-04T08:48:05.832Z,101643.48
2018-08-04T08:49:11.308Z,101643.40
2018-08-04T08:50:16.797Z,101640.42
2018-08-04T08:51:22.221Z,101637.53
2018-08-04T08:52:27.697Z,101642.95
2018-08-04T08:53:33.683Z,101638.25
2018-08-04T08:54:39.302Z,101638.25
2018-08-04T08:55:44.763Z,101643.29
2018-08-04T08:56:50.208Z,101641.33
2018-08-04T08:57:55.721Z,101641.97
2018-08-04T08:59:01.317Z,101642.46
2018-08-04T09:00:10.203Z,101641.26
2018-08-04T09:01:15.647Z,101646.90
2018-08-04T09:02:21.357Z,101646.15
2018-08-04T09:03:26.745Z,101646.90
2018-08-04T09:04:32.665Z,101641.03
2018-08-04T09:05:38.271Z,101641.48
2018-08-04T09:06:43.713Z,101639.72
2018-08-04T09:07:49.195Z,101641.86
2018-08-04T09:08:54.740Z,101641.13
2018-08-04T09:10:00.229Z,101644.64
2018-08-04T09:11:05.808Z,101641.39
2018-08-04T09:12:11.225Z,101641.52
2018-08-04T09:13:16.920Z,101644.86
2018-08-04T09:14:22.439Z,101641.26
2018-08-04T09:15:27.930Z,101639.92
2018-08-04T09:16:33.504Z,101645.80
2018-08-04T09:17:39.093Z,101643.53
2018-08-04T09:18:44.605Z,101641.11
2018-08-04T09:19:49.855Z,101646.14
2018-08-04T09:20:55.735Z,101645.52
2018-08-04T09:22:01.540Z,101645.06
2018-08-04T09:23:06.715Z,101641.44
2018-08-04T09:24:12.975Z,101648.30
2018-08-04T09:25:18.525Z,101644.69
2018-08-04T09:26:24.363Z,101648.86
2018-08-04T09:27:29.801Z,101646.13
2018-08-04T09:28:35.399Z,101645.40
2018-08-04T09:29:40.829Z,101639.75
2018-08-04T09:30:46.321Z,101640.92
2018-08-04T09:31:52.011Z,101639.03
2018-08-04T09:32:57.521Z,101644.16
2018-08-04T09:34:03.614Z,101639.22
2018-08-04T09:35:09.120Z,101636.39
2018-08-04T09:36:14.594Z,101637.10
2018-08-04T09:37:20.066Z,101628.68
2018-08-04T09:38:25.216Z,101636.72
2018-08-04T09:39:31.172Z,101629.39
2018-08-04T09:40:36.762Z,101633.31
2018-08-04T09:41:42.832Z,101634.70
2018-08-04T09:42:48.389Z,101637.77
2018-08-04T09:43:54.010Z,101630.34
2018-08-04T09:44:59.672Z,101631.78
2018-08-04T09:46:05.908Z,101631.72
2018-08-04T09:47:11.412Z,101630.06
2018-08-04T09:48:16.860Z,101623.77
2018-08-04T09:49:22.356Z,101630.02
2018-08-04T09:50:27.852Z,101633.08
2018-08-04T09:51:33.473Z,101631.92
2018-08-04T09:52:39.555Z,101637.61
2018-08-04T09:53:44.979Z,101641.39
2018-08-04T09:54:51.047Z,101635.30
2018-08-04T09:55:56.560Z,101632.73
2018-08-04T09:57:02.524Z,101632.61
2018-08-04T09:58:08.734Z,101640.03
2018-08-04T09:59:14.212Z,101633.67
2018-08-04T10:00:25.057Z,101640.72
2018-08-04T10:01:39.041Z,101637.50
2018-08-04T10:02:44.758Z,101630.91
2018-08-04T10:03:50.231Z,101634.58
2018-08-04T10:04:57.000Z,101635.56
2018-08-04T10:06:03.095Z,101632.97
2018-08-04T10:07:09.682Z,101633.09
2018-08-04T10:08:15.117Z,101633.42
2018-08-04T10:09:20.628Z,101633.08
2018-08-04T10:10:26.121Z,101635.69
2018-08-04T10:11:32.480Z,101634.77
2018-08-04T10:12:39.001Z,101633.14
2018-08-04T10:13:44.407Z,101635.66
2018-08-04T10:14:49.876Z,101628.36
2018-08-04T10:15:55.381Z,101635.22
2018-08-04T10:17:01.351Z,101635.77
2018-08-04T10:18:07.184Z,101634.59
2018-08-04T10:19:12.648Z,101636.27
2018-08-04T10:20:18.115Z,101636.41
2018-08-04T10:21:23.534Z,101633.56
2018-08-04T10:22:29.240Z,101632.08
2018-08-04T10:23:35.150Z,101632.94
2018-08-04T10:24:40.608Z,101630.42
2018-08-04T10:25:46.052Z,101625.70
2018-08-04T10:26:51.785Z,101627.84
2018-08-04T10:27:57.172Z,101626.20
2018-08-04T10:29:03.470Z,101631.81
2018-08-04T10:30:11.748Z,101629.09
2018-08-04T10:31:17.164Z,101621.98
2018-08-04T10:32:22.755Z,101620.27
2018-08-04T10:33:28.180Z,101628.27
2018-08-04T10:34:33.673Z,101634.62
2018-08-04T10:35:41.294Z,101625.33
2018-08-04T10:36:46.728Z,101620.42
2018-08-04T10:37:52.245Z,101616.20
2018-08-04T10:38:57.725Z,101614.32
2018-08-04T10:40:03.518Z,101618.33
2018-08-04T10:41:09.569Z,101621.25
2018-08-04T10:42:15.810Z,101625.95
2018-08-04T10:43:21.445Z,101622.50
2018-08-04T10:44:26.984Z,101614.70
2018-08-04T10:45:32.516Z,101619.63
2018-08-04T10:46:38.243Z,101608.59
2018-08-04T10:47:43.669Z,101618.47
2018-08-04T10:48:49.297Z,101618.20
2018-08-04T10:49:54.741Z,101615.00
2018-08-04T10:51:00.239Z,101613.66
2018-08-04T10:52:06.086Z,101614.02
2018-08-04T10:53:11.528Z,101611.93
2018-08-04T10:54:17.025Z,101607.13
2018-08-04T10:55:22.476Z,101613.80
2018-08-04T10:56:28.078Z,101607.48
2018-08-04T10:57:33.558Z,101604.13
2018-08-04T10:58:39.434Z,101604.98
2018-08-04T10:59:45.284Z,101608.75
2018-08-04T11:00:50.782Z,101610.20
2018-08-04T11:01:56.224Z,101605.59
2018-08-04T11:03:01.937Z,101609.62
2018-08-04T11:04:07.656Z,101602.87
2018-08-04T11:05:13.163Z,101609.55
2018-08-04T11:06:18.611Z,101599.53
2018-08-04T11:07:24.409Z,101606.84
2018-08-04T11:08:29.955Z,101603.14
2018-08-04T11:09:35.409Z,101609.08
2018-08-04T11:10:40.913Z,101609.14
2018-08-04T11:11:46.393Z,101613.13
2018-08-04T11:12:51.810Z,101610.13
2018-08-04T11:13:57.270Z,101613.06
2018-08-04T11:15:02.781Z,101605.27
2018-08-04T11:16:08.253Z,101602.21
2018-08-04T11:17:13.853Z,101609.92
2018-08-04T11:18:19.362Z,101606.78
2018-08-04T11:19:24.797Z,101607.20
2018-08-04T11:20:30.333Z,101603.16
2018-08-04T11:21:35.785Z,101596.70
2018-08-04T11:22:41.241Z,101604.28
2018-08-04T11:23:46.662Z,101599.37
2018-08-04T11:24:52.141Z,101605.41
2018-08-04T11:25:57.741Z,101598.93
2018-08-04T11:27:04.008Z,101597.42
2018-08-04T11:28:09.611Z,101595.66
2018-08-04T11:29:15.108Z,101595.98
2018-08-04T11:30:20.710Z,101604.99
2018-08-04T11:31:25.980Z,101602.89
2018-08-04T11:32:31.528Z,101594.95
2018-08-04T11:33:37.159Z,101597.39
2018-08-04T11:34:42.600Z,101602.14
2018-08-04T11:35:48.062Z,101595.62
2018-08-04T11:36:53.511Z,101595.70
2018-08-04T11:37:58.961Z,101596.42
2018-08-04T11:39:06.357Z,101596.19
2018-08-04T11:40:11.830Z,101598.10
2018-08-04T11:41:17.347Z,101589.33
2018-08-04T11:42:22.853Z,101596.03
2018-08-04T11:43:28.623Z,101593.22
2018-08-04T11:44:34.284Z,101599.37
2018-08-04T11:45:40.500Z,101591.71
2018-08-04T11:46:46.564Z,101592.02
2018-08-04T11:47:52.000Z,101597.76
2018-08-04T11:48:57.449Z,101587.76
2018-08-04T11:50:02.990Z,101592.17
2018-08-04T11:51:08.532Z,101589.42
2018-08-04T11:52:17.132Z,101589.91
2018-08-04T11:53:22.612Z,101589.23
2018-08-04T11:54:28.075Z,101586.12
2018-08-04T11:55:33.583Z,101585.43
2018-08-04T11:56:38.974Z,101591.58
2018-08-04T11:57:44.415Z,101591.38
2018-08-04T11:58:49.864Z,101595.97
2018-08-04T11:59:55.341Z,101595.94
2018-08-04T12:01:00.946Z,101588.17
2018-08-04T12:02:06.866Z,101597.94
2018-08-04T12:03:12.317Z,101586.84
2018-08-04T12:04:17.986Z,101583.48
2018-08-04T12:05:23.452Z,101574.66
2018-08-04T12:06:28.977Z,101582.33
2018-08-04T12:07:35.958Z,101578.41
2018-08-04T12:08:41.571Z,101585.98
2018-08-04T12:09:47.147Z,101586.88
2018-08-04T12:10:52.908Z,101590.17
2018-08-04T12:11:58.960Z,101582.44
2018-08-04T12:13:04.882Z,101585.94
2018-08-04T12:14:11.449Z,101576.27
2018-08-04T12:15:18.019Z,101576.66
2018-08-04T12:16:23.650Z,101579.30
2018-08-04T12:17:29.380Z,101578.34
2018-08-04T12:18:35.443Z,101580.75
2018-08-04T12:19:40.839Z,101582.19
2018-08-04T12:20:46.754Z,101581.29
2018-08-04T12:21:52.579Z,101579.72
2018-08-04T12:22:58.078Z,101578.87
2018-08-04T12:24:03.781Z,101578.80
2018-08-04T12:25:09.918Z,101578.16
2018-08-04T12:26:15.401Z,101577.95
2018-08-04T12:27:21.072Z,101570.90
2018-08-04T12:28:27.404Z,101569.82
2018-08-04T12:29:35.130Z,101574.96